Time;durP1;ratioP1;P1;durP2;ratioP2;P2;SDS_P1;SDS_P2;PMS_P1;PMS_P2;Temp;Humidity;BMP_temperature;BMP_pressure;BME280_temperature;BME280_humidity;BME280_pressure;Samples;Min_cycle;Max_cycle;Signal;HPM_P1;HPM_P2
2021/12/11 00:00:48;;;;;;;;;;;128.80;2252.80;;;;;;5075558;28;19940;-80
2021/12/11 00:03:17;;;;;;;;;;;128.80;1868.80;;;;;;5081037;28;19908;-83
2021/12/11 00:05:44;;;;;;;;;;;153.70;2252.80;;;;;;5074590;28;20381;-82
2021/12/11 00:08:13;;;;;;;;;;;153.80;2252.80;;;;;;5075751;28;19908;-81
2021/12/11 00:10:44;;;;;;;;;;;153.80;2252.80;;;;;;5074707;28;19912;-82
2021/12/11 00:13:14;;;;;;;;;;;153.80;2252.80;;;;;;5075069;28;20368;-76
2021/12/11 00:15:41;;;;;;;;;;;153.90;2252.80;;;;;;5074306;28;19904;-81
2021/12/11 00:18:11;;;;;;;;;;;153.90;2252.80;;;;;;5074671;28;19924;-78
2021/12/11 00:20:38;;;;;;;;;;;153.90;2252.80;;;;;;5075574;28;19912;-76
2021/12/11 00:23:05;;;;;;;;;;;153.90;2252.80;;;;;;5075204;28;20416;-77
2021/12/11 00:25:31;;;;;;;;;;;154.00;2252.80;;;;;;5074320;28;19905;-82
2021/12/11 00:28:01;;;;;;;;;;;154.10;2252.80;;;;;;5075230;28;19915;-82
2021/12/11 00:30:29;;;;;;;;;;;154.10;2252.80;;;;;;5073559;28;20039;-80
2021/12/11 00:33:09;;;;;;;;;;;153.90;2252.80;;;;;;5075313;28;20320;-80
2021/12/11 00:35:35;;;;;;;;;;;153.90;2252.80;;;;;;5072680;28;19954;-80
2021/12/11 00:38:03;;;;;;;;;;;154.10;2252.80;;;;;;5075217;28;19916;-78
2021/12/11 00:40:29;;;;;;;;;;;154.20;2252.80;;;;;;5074658;28;20433;-82
2021/12/11 00:42:58;;;;;;;;;;;154.30;2252.80;;;;;;5075671;28;19911;-77
2021/12/11 00:45:26;;;;;;;;;;;154.20;2252.80;;;;;;5074890;28;19908;-74
2021/12/11 00:47:54;;;;;;;;;;;154.20;2252.80;;;;;;5074666;28;19916;-82
2021/12/11 00:50:21;;;;;;;;;;;154.20;2252.80;;;;;;5075962;28;19923;-76
2021/12/11 00:52:49;;;;;;;;;;;154.20;2252.80;;;;;;5074391;28;19915;-81
2021/12/11 00:55:21;;;;;;;;;;;154.30;2252.80;;;;;;5074447;28;19909;-81
2021/12/11 00:57:48;;;;;;;;;;;154.20;2252.80;;;;;;5074507;28;19929;-78
2021/12/11 01:00:17;;;;;;;;;;;154.10;2252.80;;;;;;5074567;28;19972;-78
2021/12/11 01:02:43;;;;;;;;;;;154.10;2252.80;;;;;;5074599;28;19908;-80
2021/12/11 01:05:10;;;;;;;;;;;154.40;2252.80;;;;;;5075756;28;20265;-81
2021/12/11 01:07:36;;;;;;;;;;;154.00;2252.80;;;;;;5094601;28;19982;-80
2021/12/11 01:10:06;;;;;;;;;;;153.80;2252.80;;;;;;5092990;28;19919;-81
2021/12/11 01:12:43;;;;;;;;;;;153.80;2252.80;;;;;;5096130;28;19904;-74
2021/12/11 01:15:13;;;;;;;;;;;153.60;2252.80;;;;;;5094454;28;19904;-81
2021/12/11 01:17:46;;;;;;;;;;;153.70;2252.80;;;;;;5094090;28;19919;-79
2021/12/11 01:20:15;;;;;;;;;;;153.60;2252.80;;;;;;5095745;28;19916;-81
2021/12/11 01:22:42;;;;;;;;;;;153.70;2252.80;;;;;;5095276;28;19908;-76
2021/12/11 01:25:23;;;;;;;;;;;153.80;2252.80;;;;;;5094266;28;20015;-75
2021/12/11 01:27:51;;;;;;;;;;;153.80;2252.80;;;;;;5094200;28;20311;-74
2021/12/11 01:30:23;;;;;;;;;;;153.90;2252.80;;;;;;5095246;28;19916;-81
2021/12/11 01:32:48;;;;;;;;;;;153.80;2252.80;;;;;;5094351;28;19903;-81
2021/12/11 01:35:16;;;;;;;;;;;153.60;2252.80;;;;;;5094067;28;19938;-74
2021/12/11 01:37:42;;;;;;;;;;;153.60;2252.80;;;;;;5094164;28;20319;-82
2021/12/11 01:40:09;;;;;;;;;;;128.80;2252.80;;;;;;5095173;28;19904;-79
2021/12/11 01:42:36;;;;;;;;;;;128.70;2252.80;;;;;;5094059;28;19953;-77
2021/12/11 01:45:04;;;;;;;;;;;128.60;2252.80;;;;;;5093737;28;19944;-82
2021/12/11 01:47:31;;;;;;;;;;;128.50;2252.80;;;;;;5094849;28;19915;-82
2021/12/11 01:49:58;;;;;;;;;;;128.40;2252.80;;;;;;5094957;28;20023;-80
2021/12/11 01:52:38;;;;;;;;;;;128.40;2252.80;;;;;;5094765;28;19910;-74
2021/12/11 01:55:07;;;;;;;;;;;128.30;2252.80;;;;;;5095220;28;20007;-82
2021/12/11 01:57:33;;;;;;;;;;;128.30;2252.80;;;;;;5094773;28;20074;-75
2021/12/11 02:00:04;;;;;;;;;;;128.30;2252.80;;;;;;5110550;28;19944;-74
2021/12/11 02:02:32;;;;;;;;;;;128.20;2252.80;;;;;;5094758;28;19957;-81
2021/12/11 02:04:58;;;;;;;;;;;128.20;2252.80;;;;;;5110395;28;20375;-74
2021/12/11 02:07:30;;;;;;;;;;;128.10;2252.80;;;;;;5094751;28;19911;-82
2021/12/11 02:09:57;;;;;;;;;;;128.00;2252.80;;;;;;5094197;28;20045;-81
2021/12/11 02:12:33;;;;;;;;;;;128.00;2252.80;;;;;;5093408;28;19904;-82
2021/12/11 02:15:02;;;;;;;;;;;128.20;2252.80;;;;;;5093122;28;19918;-83
2021/12/11 02:17:48;;;;;;;;;;;128.20;2252.80;;;;;;5093863;28;19923;-74
2021/12/11 02:20:19;;;;;;;;;;;128.40;2252.80;;;;;;5094617;28;20319;-79
2021/12/11 02:22:46;;;;;;;;;;;128.20;2252.80;;;;;;5093846;28;19904;-75
2021/12/11 02:25:35;;;;;;;;;;;103.30;2227.20;;;;;;5092813;28;19904;-75
2021/12/11 02:28:04;;;;;;;;;;;103.30;2227.20;;;;;;5082249;28;19904;-74
2021/12/11 02:30:34;;;;;;;;;;;103.20;2227.20;;;;;;5094061;28;19912;-75
2021/12/11 02:33:06;;;;;;;;;;;103.00;2227.20;;;;;;5094174;28;19918;-74
2021/12/11 02:35:36;;;;;;;;;;;103.10;2227.20;;;;;;5092658;28;19950;-82
2021/12/11 02:38:08;;;;;;;;;;;103.10;2227.20;;;;;;5093965;28;19935;-74
2021/12/11 02:40:57;;;;;;;;;;;103.00;2227.20;;;;;;5093100;28;19904;-82
2021/12/11 02:43:26;;;;;;;;;;;103.30;2227.20;;;;;;5031824;28;19921;-81
2021/12/11 02:45:55;;;;;;;;;;;103.30;2227.20;;;;;;5031576;28;19952;-74
2021/12/11 02:48:33;;;;;;;;;;;128.10;2252.80;;;;;;5031704;28;19909;-82
2021/12/11 02:50:58;;;;;;;;;;;128.30;2252.80;;;;;;5031568;28;19936;-77
2021/12/11 02:53:29;;;;;;;;;;;128.40;2252.80;;;;;;5015225;28;19991;-75
2021/12/11 02:55:56;;;;;;;;;;;128.20;2252.80;;;;;;5031447;28;19905;-74
2021/12/11 02:58:24;;;;;;;;;;;128.40;2252.80;;;;;;5031477;28;19992;-74
2021/12/11 03:00:53;;;;;;;;;;;128.00;2252.80;;;;;;5031518;28;19912;-82
2021/12/11 03:03:26;;;;;;;;;;;128.10;2252.80;;;;;;5031482;28;19905;-82
2021/12/11 03:06:02;;;;;;;;;;;128.30;2252.80;;;;;;5031528;28;19978;-75
2021/12/11 03:08:28;;;;;;;;;;;128.40;2252.80;;;;;;5014981;28;20000;-81
2021/12/11 03:10:58;;;;;;;;;;;128.40;2252.80;;;;;;5014695;28;19916;-74
2021/12/11 03:13:26;;;;;;;;;;;128.30;2252.80;;;;;;5014941;28;19974;-82
2021/12/11 03:15:52;;;;;;;;;;;128.40;2252.80;;;;;;5031030;28;19909;-74
2021/12/11 03:18:18;;;;;;;;;;;128.50;2252.80;;;;;;5014396;28;19917;-74
2021/12/11 03:20:44;;;;;;;;;;;128.50;2252.80;;;;;;5063741;28;19912;-82
2021/12/11 03:23:10;;;;;;;;;;;128.50;2252.80;;;;;;5092230;28;19912;-74
2021/12/11 03:25:36;;;;;;;;;;;128.70;2252.80;;;;;;5092384;28;19904;-82
2021/12/11 03:28:03;;;;;;;;;;;128.70;2252.80;;;;;;5093402;28;19958;-76
2021/12/11 03:30:31;;;;;;;;;;;128.80;2252.80;;;;;;5091746;28;20354;-75
2021/12/11 03:32:59;;;;;;;;;;;128.90;2252.80;;;;;;5092695;28;19934;-74
2021/12/11 03:35:25;;;;;;;;;;;128.90;2252.80;;;;;;5093167;28;19904;-81
2021/12/11 03:37:50;;;;;;;;;;;153.60;2252.80;;;;;;5093291;28;19969;-74
2021/12/11 03:40:17;;;;;;;;;;;153.70;2252.80;;;;;;5093320;28;19915;-76
2021/12/11 03:42:45;;;;;;;;;;;153.70;2252.80;;;;;;5093035;28;19908;-75
2021/12/11 03:45:14;;;;;;;;;;;153.70;2252.80;;;;;;5093109;28;19933;-74
2021/12/11 03:47:42;;;;;;;;;;;153.70;2252.80;;;;;;5092848;28;19965;-75
2021/12/11 03:50:12;;;;;;;;;;;153.70;2252.80;;;;;;5109120;28;19924;-80
2021/12/11 03:52:39;;;;;;;;;;;153.70;2252.80;;;;;;5092926;28;19904;-82
2021/12/11 03:55:05;;;;;;;;;;;153.70;2252.80;;;;;;5093093;28;19995;-82
2021/12/11 03:57:31;;;;;;;;;;;153.70;2252.80;;;;;;5092070;28;19904;-75
2021/12/11 03:59:56;;;;;;;;;;;153.80;2252.80;;;;;;5092842;28;19954;-82
2021/12/11 04:02:24;;;;;;;;;;;153.80;2252.80;;;;;;5091962;28;19904;-75
2021/12/11 04:04:52;;;;;;;;;;;153.80;2252.80;;;;;;5092838;28;19983;-74
2021/12/11 04:07:20;;;;;;;;;;;153.90;2252.80;;;;;;5092063;28;19929;-74
2021/12/11 04:09:46;;;;;;;;;;;153.80;2252.80;;;;;;5108655;28;19962;-82
2021/12/11 04:12:12;;;;;;;;;;;153.60;2252.80;;;;;;5093054;28;20352;-81
2021/12/11 04:14:40;;;;;;;;;;;153.80;2252.80;;;;;;5091785;28;19904;-74
2021/12/11 04:17:07;;;;;;;;;;;153.80;2252.80;;;;;;5092504;28;19912;-74
2021/12/11 04:19:33;;;;;;;;;;;153.90;2252.80;;;;;;5092919;28;20022;-83
2021/12/11 04:21:59;;;;;;;;;;;153.80;2252.80;;;;;;5092550;28;19930;-74
2021/12/11 04:24:28;;;;;;;;;;;153.60;2252.80;;;;;;5092956;28;19904;-78
2021/12/11 04:26:54;;;;;;;;;;;154.00;2252.80;;;;;;5091349;28;19953;-82
2021/12/11 04:29:20;;;;;;;;;;;154.10;2252.80;;;;;;5092632;28;19908;-74
2021/12/11 04:31:47;;;;;;;;;;;154.00;2252.80;;;;;;5092608;28;19908;-81
2021/12/11 04:34:14;;;;;;;;;;;153.80;2252.80;;;;;;5092956;28;19904;-82
2021/12/11 04:36:51;;;;;;;;;;;153.80;2252.80;;;;;;5092653;28;19904;-74
2021/12/11 04:39:19;;;;;;;;;;;153.80;2252.80;;;;;;5108389;28;19958;-75
2021/12/11 04:42:00;;;;;;;;;;;153.70;2252.80;;;;;;5092656;28;19904;-82
2021/12/11 04:44:32;;;;;;;;;;;153.80;2252.80;;;;;;5092651;28;19908;-74
2021/12/11 04:46:58;;;;;;;;;;;153.80;2252.80;;;;;;5094925;28;19935;-74
2021/12/11 04:49:35;;;;;;;;;;;153.70;2252.80;;;;;;5095973;28;19912;-82
2021/12/11 04:52:09;;;;;;;;;;;153.80;2252.80;;;;;;5095961;28;19912;-75
2021/12/11 04:55:09;;;;;;;;;;;153.90;2252.80;;;;;;5111849;28;19910;-74
2021/12/11 05:05:44;;;;;;;;;;;153.80;2252.80;;;;;;5095776;28;19965;-74
2021/12/11 05:08:48;;;;;;;;;;;153.80;2252.80;;;;;;5095810;28;19948;-75
2021/12/11 05:11:05;;;;;;;;;;;153.90;2252.80;;;;;;5095291;28;19934;-82
2021/12/11 05:13:32;;;;;;;;;;;153.90;2252.80;;;;;;5094412;28;19907;-81
2021/12/11 05:16:00;;;;;;;;;;;153.80;2252.80;;;;;;5095431;28;19931;-74
2021/12/11 05:18:28;;;;;;;;;;;153.80;2252.80;;;;;;5094294;28;20429;-83
2021/12/11 05:20:57;;;;;;;;;;;153.80;2252.80;;;;;;5095869;28;19915;-82
2021/12/11 05:23:22;;;;;;;;;;;153.80;2252.80;;;;;;5095264;28;19904;-83
2021/12/11 05:25:48;;;;;;;;;;;153.70;2252.80;;;;;;5094288;28;20050;-81
2021/12/11 05:28:14;;;;;;;;;;;153.90;2252.80;;;;;;5095167;28;19911;-74
2021/12/11 05:30:41;;;;;;;;;;;153.90;2252.80;;;;;;5095366;28;19935;-74
2021/12/11 05:33:07;;;;;;;;;;;154.00;2252.80;;;;;;5095074;28;19961;-77
2021/12/11 05:35:34;;;;;;;;;;;154.00;2252.80;;;;;;5111354;28;19908;-74
2021/12/11 05:38:00;;;;;;;;;;;153.80;2252.80;;;;;;5110835;28;19910;-82
2021/12/11 05:40:27;;;;;;;;;;;153.80;2252.80;;;;;;5095317;28;20380;-80
2021/12/11 05:42:53;;;;;;;;;;;153.80;2252.80;;;;;;5093698;28;19904;-79
2021/12/11 05:45:19;;;;;;;;;;;153.90;2252.80;;;;;;5094741;28;19915;-75
2021/12/11 05:47:45;;;;;;;;;;;153.80;2252.80;;;;;;5094831;28;19908;-74
2021/12/11 05:50:13;;;;;;;;;;;153.80;2252.80;;;;;;5094757;28;19941;-82
2021/12/11 05:52:38;;;;;;;;;;;153.90;2252.80;;;;;;5095186;28;19904;-83
2021/12/11 05:55:07;;;;;;;;;;;153.90;2252.80;;;;;;5094763;28;19910;-75
2021/12/11 05:57:36;;;;;;;;;;;153.80;2252.80;;;;;;5094826;28;19916;-83
2021/12/11 06:00:04;;;;;;;;;;;153.90;2252.80;;;;;;5094835;28;19918;-75
2021/12/11 06:02:29;;;;;;;;;;;154.00;2252.80;;;;;;5094610;28;19910;-74
2021/12/11 06:04:57;;;;;;;;;;;154.00;2252.80;;;;;;5094407;28;19904;-78
2021/12/11 06:07:24;;;;;;;;;;;154.00;2252.80;;;;;;5094409;28;19904;-74
2021/12/11 06:09:53;;;;;;;;;;;154.00;2252.80;;;;;;5094519;28;19919;-74
2021/12/11 06:12:19;;;;;;;;;;;153.90;2252.80;;;;;;5093323;28;19911;-78
2021/12/11 06:14:46;;;;;;;;;;;153.90;2252.80;;;;;;5093024;28;19910;-74
2021/12/11 06:17:15;;;;;;;;;;;154.00;2252.80;;;;;;5094015;28;20396;-78
2021/12/11 06:19:44;;;;;;;;;;;154.10;2252.80;;;;;;5093636;28;19953;-78
2021/12/11 06:22:09;;;;;;;;;;;154.10;2252.80;;;;;;5094120;28;19904;-79
2021/12/11 06:24:35;;;;;;;;;;;154.10;2252.80;;;;;;5093961;28;19904;-74
2021/12/11 06:27:01;;;;;;;;;;;154.00;2252.80;;;;;;5094087;28;20021;-74
2021/12/11 06:29:27;;;;;;;;;;;153.90;2252.80;;;;;;5093773;28;19947;-74
2021/12/11 06:31:52;;;;;;;;;;;153.90;2252.80;;;;;;5094015;28;19957;-76
2021/12/11 06:34:18;;;;;;;;;;;153.80;2252.80;;;;;;5093791;28;20374;-74
2021/12/11 06:36:44;;;;;;;;;;;153.80;2252.80;;;;;;5094133;28;19904;-79
2021/12/11 06:39:11;;;;;;;;;;;153.70;2252.80;;;;;;5093874;28;19904;-78
2021/12/11 06:41:39;;;;;;;;;;;153.80;2252.80;;;;;;5093930;28;20366;-75
2021/12/11 06:44:05;;;;;;;;;;;154.00;2252.80;;;;;;5093827;28;19904;-82
2021/12/11 06:46:31;;;;;;;;;;;153.60;2252.80;;;;;;5091525;28;19904;-77
2021/12/11 06:48:57;;;;;;;;;;;153.80;2252.80;;;;;;5091890;28;19908;-76
2021/12/11 06:51:23;;;;;;;;;;;153.90;2252.80;;;;;;5093567;28;19916;-74
2021/12/11 06:53:51;;;;;;;;;;;153.90;2252.80;;;;;;5093449;28;20387;-76
2021/12/11 06:56:18;;;;;;;;;;;153.90;2252.80;;;;;;5093334;28;19956;-75
2021/12/11 06:58:43;;;;;;;;;;;154.00;2252.80;;;;;;5093873;28;19933;-78
2021/12/11 07:01:09;;;;;;;;;;;154.00;2252.80;;;;;;5093502;28;19904;-78
2021/12/11 07:03:36;;;;;;;;;;;154.00;2252.80;;;;;;5093813;28;19904;-79
2021/12/11 07:06:02;;;;;;;;;;;154.00;2252.80;;;;;;5093363;28;19904;-74
2021/12/11 07:08:29;;;;;;;;;;;153.70;2252.80;;;;;;5090449;28;19904;-77
2021/12/11 07:10:55;;;;;;;;;;;153.60;2252.80;;;;;;5092175;28;19916;-74
2021/12/11 07:13:21;;;;;;;;;;;128.90;2252.80;;;;;;5093447;28;19911;-78
2021/12/11 07:15:47;;;;;;;;;;;128.70;2252.80;;;;;;5093126;28;19904;-73
2021/12/11 07:18:13;;;;;;;;;;;128.60;2252.80;;;;;;5090634;28;19916;-74
2021/12/11 07:20:38;;;;;;;;;;;128.70;2252.80;;;;;;5074596;28;20350;-76
2021/12/11 07:23:04;;;;;;;;;;;153.60;2252.80;;;;;;5072388;28;19908;-74
2021/12/11 07:25:43;;;;;;;;;;;153.80;2252.80;;;;;;5082016;28;19951;-77
2021/12/11 07:28:10;;;;;;;;;;;154.00;2252.80;;;;;;5092303;28;20368;-74
2021/12/11 07:30:37;;;;;;;;;;;154.00;2252.80;;;;;;5091786;28;19911;-78
2021/12/11 07:33:04;;;;;;;;;;;154.00;2252.80;;;;;;5083969;28;19908;-74
2021/12/11 07:35:31;;;;;;;;;;;153.90;2252.80;;;;;;5083625;28;19943;-79
2021/12/11 07:37:57;;;;;;;;;;;154.00;2252.80;;;;;;5075065;28;20409;-79
2021/12/11 07:40:24;;;;;;;;;;;154.10;2252.80;;;;;;5072252;28;19951;-78
2021/12/11 07:42:50;;;;;;;;;;;154.10;2252.80;;;;;;5072288;28;19947;-77
2021/12/11 07:45:17;;;;;;;;;;;153.60;2252.80;;;;;;5073909;28;19951;-76
2021/12/11 07:47:43;;;;;;;;;;;154.20;2252.80;;;;;;5072262;28;19909;-76
2021/12/11 07:50:11;;;;;;;;;;;154.10;2252.80;;;;;;5072116;28;19939;-75
2021/12/11 07:52:37;;;;;;;;;;;154.00;2252.80;;;;;;5073039;28;19916;-76
2021/12/11 07:55:03;;;;;;;;;;;154.20;2252.80;;;;;;5081655;28;20263;-75
2021/12/11 07:57:29;;;;;;;;;;;154.30;2252.80;;;;;;5081478;28;20274;-80
2021/12/11 07:59:55;;;;;;;;;;;154.10;2252.80;;;;;;5082944;28;19911;-76
2021/12/11 08:02:20;;;;;;;;;;;154.30;2252.80;;;;;;5079880;28;19915;-76
2021/12/11 08:04:46;;;;;;;;;;;154.30;2252.80;;;;;;5079262;28;19905;-76
2021/12/11 08:07:12;;;;;;;;;;;154.30;2252.80;;;;;;5075080;28;19905;-76
2021/12/11 08:09:37;;;;;;;;;;;154.30;2252.80;;;;;;5081325;28;19970;-77
2021/12/11 08:12:03;;;;;;;;;;;154.40;2252.80;;;;;;5082573;28;19930;-75
2021/12/11 08:14:29;;;;;;;;;;;154.40;2252.80;;;;;;5089381;28;19927;-77
2021/12/11 08:16:57;;;;;;;;;;;154.30;2252.80;;;;;;5084589;28;19904;-78
2021/12/11 08:19:25;;;;;;;;;;;154.30;2252.80;;;;;;5074498;28;19942;-74
2021/12/11 08:21:52;;;;;;;;;;;154.30;2252.80;;;;;;5086052;28;20424;-78
2021/12/11 08:24:18;;;;;;;;;;;154.40;2252.80;;;;;;5083917;28;19939;-74
2021/12/11 08:26:44;;;;;;;;;;;154.40;2252.80;;;;;;5086289;28;19931;-76
2021/12/11 08:29:11;;;;;;;;;;;154.40;2252.80;;;;;;5084356;28;19946;-75
2021/12/11 08:31:39;;;;;;;;;;;154.50;2252.80;;;;;;5081965;28;20313;-75
2021/12/11 08:34:05;;;;;;;;;;;179.20;2252.80;;;;;;5084022;28;19904;-74
2021/12/11 08:36:31;;;;;;;;;;;179.20;2252.80;;;;;;5078403;28;20294;-79
2021/12/11 08:38:59;;;;;;;;;;;179.20;2252.80;;;;;;5075664;28;19912;-77
2021/12/11 08:41:27;;;;;;;;;;;179.30;2252.80;;;;;;5074607;28;19905;-77
2021/12/11 08:43:59;;;;;;;;;;;179.30;2252.80;;;;;;5079984;28;19916;-78
2021/12/11 08:46:28;;;;;;;;;;;179.40;2252.80;;;;;;5090045;28;19934;-77
2021/12/11 08:48:56;;;;;;;;;;;179.30;2252.80;;;;;;5095817;28;19908;-74
2021/12/11 08:51:25;;;;;;;;;;;179.30;2252.80;;;;;;5096129;28;19916;-73
2021/12/11 08:53:51;;;;;;;;;;;179.40;2252.80;;;;;;5095665;28;19904;-74
2021/12/11 08:56:18;;;;;;;;;;;179.30;2252.80;;;;;;5095803;28;19908;-75
2021/12/11 08:58:44;;;;;;;;;;;179.40;2252.80;;;;;;5094371;28;19987;-77
2021/12/11 09:01:15;;;;;;;;;;;179.40;2252.80;;;;;;5095630;28;19908;-74
2021/12/11 09:03:44;;;;;;;;;;;179.40;2252.80;;;;;;5094020;28;20280;-74
2021/12/11 09:06:16;;;;;;;;;;;179.40;2252.80;;;;;;5086959;28;20357;-76
2021/12/11 09:08:47;;;;;;;;;;;179.40;2252.80;;;;;;5073895;28;19931;-79
2021/12/11 09:11:34;;;;;;;;;;;179.50;2252.80;;;;;;5055284;28;19921;-78
2021/12/11 09:14:13;;;;;;;;;;;179.60;2252.80;;;;;;5055288;28;19905;-78
2021/12/11 09:16:47;;;;;;;;;;;179.60;2252.80;;;;;;5055052;28;19916;-74
2021/12/11 09:19:13;;;;;;;;;;;179.50;2252.80;;;;;;5055134;28;19921;-75
2021/12/11 09:22:11;;;;;;;;;;;179.60;2252.80;;;;;;5070553;28;20274;-78
2021/12/11 09:24:37;;;;;;;;;;;179.70;2252.80;;;;;;5017912;28;19919;-79
2021/12/11 09:27:05;;;;;;;;;;;179.60;2252.80;;;;;;5037147;28;19909;-80
2021/12/11 09:29:57;;;;;;;;;;;179.60;2252.80;;;;;;5041508;28;19913;-78
2021/12/11 09:32:32;;;;;;;;;;;179.70;2252.80;;;;;;5044068;28;19932;-78
2021/12/11 09:35:02;;;;;;;;;;;179.70;2252.80;;;;;;5052871;28;19904;-74
2021/12/11 09:37:29;;;;;;;;;;;179.70;2252.80;;;;;;5052474;28;19912;-74
2021/12/11 09:40:03;;;;;;;;;;;179.70;2252.80;;;;;;5052796;28;19987;-74
2021/12/11 09:42:31;;;;;;;;;;;179.80;2252.80;;;;;;5036615;28;19905;-79
2021/12/11 09:44:59;;;;;;;;;;;179.80;2252.80;;;;;;5069227;28;20404;-80
2021/12/11 09:47:31;;;;;;;;;;;179.80;2252.80;;;;;;5052616;28;19909;-79
2021/12/11 09:50:03;;;;;;;;;;;179.80;2252.80;;;;;;5035994;28;19980;-80
2021/12/11 09:52:30;;;;;;;;;;;179.90;2252.80;;;;;;5052349;28;19915;-75
2021/12/11 09:54:57;;;;;;;;;;;179.90;2252.80;;;;;;5069449;28;19904;-82
2021/12/11 09:57:24;;;;;;;;;;;179.90;2252.80;;;;;;5052219;28;20460;-76
2021/12/11 09:59:51;;;;;;;;;;;180.00;2252.80;;;;;;5053746;28;20034;-75
2021/12/11 10:02:19;;;;;;;;;;;180.10;2252.80;;;;;;5094580;28;19910;-74
2021/12/11 10:04:59;;;;;;;;;;;180.00;2252.80;;;;;;5094375;28;19957;-79
2021/12/11 10:07:32;;;;;;;;;;;180.10;2252.80;;;;;;5093125;28;19907;-77
2021/12/11 10:10:08;;;;;;;;;;;180.10;2252.80;;;;;;5090907;28;20373;-75
2021/12/11 10:12:35;;;;;;;;;;;204.80;2252.80;;;;;;5074085;28;19915;-77
2021/12/11 10:15:13;;;;;;;;;;;204.90;2252.80;;;;;;5082570;28;19908;-77
2021/12/11 10:17:44;;;;;;;;;;;204.90;2252.80;;;;;;5087923;28;19916;-74
2021/12/11 10:20:17;;;;;;;;;;;180.10;2252.80;;;;;;5082326;28;19915;-74
2021/12/11 10:22:43;;;;;;;;;;;204.80;2252.80;;;;;;5074436;28;19904;-78
2021/12/11 10:25:16;;;;;;;;;;;204.80;2252.80;;;;;;5077356;28;19950;-74
2021/12/11 10:27:42;;;;;;;;;;;180.10;2252.80;;;;;;5073398;28;19908;-75
2021/12/11 10:30:09;;;;;;;;;;;179.70;2252.80;;;;;;5073347;28;19920;-75
2021/12/11 10:32:34;;;;;;;;;;;179.90;2252.80;;;;;;5073141;28;19904;-74
2021/12/11 10:35:03;;;;;;;;;;;179.90;2252.80;;;;;;5073042;28;19904;-74
2021/12/11 10:37:33;;;;;;;;;;;179.90;2252.80;;;;;;5073484;28;19911;-74
2021/12/11 10:40:02;;;;;;;;;;;179.70;2252.80;;;;;;5071875;28;19904;-75
2021/12/11 10:42:28;;;;;;;;;;;179.80;2252.80;;;;;;5073339;28;19908;-76
2021/12/11 10:44:55;;;;;;;;;;;179.80;2252.80;;;;;;5071685;28;19950;-76
2021/12/11 10:47:23;;;;;;;;;;;180.00;2252.80;;;;;;5071988;28;19908;-76
2021/12/11 10:49:50;;;;;;;;;;;180.00;2252.80;;;;;;5072758;28;19919;-74
2021/12/11 10:52:34;;;;;;;;;;;180.10;2252.80;;;;;;5071940;28;19904;-74
2021/12/11 10:55:01;;;;;;;;;;;180.10;2252.80;;;;;;5073021;28;19912;-75
2021/12/11 10:57:27;;;;;;;;;;;180.10;2252.80;;;;;;5072908;28;19911;-74
2021/12/11 10:59:54;;;;;;;;;;;180.10;2252.80;;;;;;5073048;28;19909;-75
2021/12/11 11:02:24;;;;;;;;;;;180.00;2252.80;;;;;;5071570;28;19935;-75
2021/12/11 11:04:55;;;;;;;;;;;179.90;2252.80;;;;;;5072819;28;19913;-74
2021/12/11 11:07:22;;;;;;;;;;;179.90;2252.80;;;;;;5072978;28;20402;-76
2021/12/11 11:09:49;;;;;;;;;;;180.00;2252.80;;;;;;5074505;28;20294;-74
2021/12/11 11:12:16;;;;;;;;;;;180.00;2252.80;;;;;;5093136;28;19949;-75
2021/12/11 11:14:41;;;;;;;;;;;180.00;2252.80;;;;;;5092716;28;20365;-74
2021/12/11 11:17:09;;;;;;;;;;;179.90;2252.80;;;;;;5108451;28;19962;-76
2021/12/11 11:19:38;;;;;;;;;;;180.00;2252.80;;;;;;5083718;28;20259;-77
2021/12/11 11:22:06;;;;;;;;;;;180.00;2252.80;;;;;;5081507;28;19991;-78
2021/12/11 11:24:37;;;;;;;;;;;179.90;2252.80;;;;;;5076773;28;19922;-75
2021/12/11 11:27:03;;;;;;;;;;;179.90;2252.80;;;;;;5072548;28;19904;-74
2021/12/11 11:29:30;;;;;;;;;;;179.80;2252.80;;;;;;5072645;28;19954;-77
2021/12/11 11:31:58;;;;;;;;;;;179.80;2252.80;;;;;;5072319;28;19908;-78
2021/12/11 11:34:24;;;;;;;;;;;179.80;2252.80;;;;;;5072811;28;19911;-74
2021/12/11 11:36:51;;;;;;;;;;;179.80;2252.80;;;;;;5072543;28;19904;-74
2021/12/11 11:39:18;;;;;;;;;;;179.80;2252.80;;;;;;5072662;28;19908;-76
2021/12/11 11:41:46;;;;;;;;;;;179.80;2252.80;;;;;;5072474;28;19909;-73
2021/12/11 11:44:12;;;;;;;;;;;179.80;2252.80;;;;;;5071591;28;19904;-74
2021/12/11 11:46:39;;;;;;;;;;;179.90;2252.80;;;;;;5072191;28;19916;-74
2021/12/11 11:49:06;;;;;;;;;;;179.90;2252.80;;;;;;5072328;28;19908;-74
2021/12/11 11:51:34;;;;;;;;;;;179.80;2252.80;;;;;;5072690;28;20358;-76
2021/12/11 11:54:01;;;;;;;;;;;179.90;2252.80;;;;;;5073527;28;20316;-74
2021/12/11 11:56:29;;;;;;;;;;;179.90;2252.80;;;;;;5076664;28;19905;-75
2021/12/11 11:58:55;;;;;;;;;;;179.90;2252.80;;;;;;5076092;28;19908;-77
2021/12/11 12:01:23;;;;;;;;;;;179.80;2252.80;;;;;;5077873;28;19962;-74
2021/12/11 12:03:49;;;;;;;;;;;179.90;2252.80;;;;;;5074958;28;19905;-74
2021/12/11 12:06:22;;;;;;;;;;;179.90;2252.80;;;;;;5074986;28;19915;-75
2021/12/11 12:08:48;;;;;;;;;;;179.90;2252.80;;;;;;5075936;28;20361;-73
2021/12/11 12:11:14;;;;;;;;;;;179.90;2252.80;;;;;;5069088;28;19920;-76
2021/12/11 12:13:40;;;;;;;;;;;180.00;2252.80;;;;;;5075072;28;19905;-75
2021/12/11 12:16:08;;;;;;;;;;;180.00;2252.80;;;;;;5066416;28;19931;-77
2021/12/11 12:18:42;;;;;;;;;;;179.90;2252.80;;;;;;5075036;28;19916;-77
2021/12/11 12:21:09;;;;;;;;;;;180.00;2252.80;;;;;;5073106;28;19939;-75
2021/12/11 12:23:35;;;;;;;;;;;180.00;2252.80;;;;;;5074655;28;20026;-73
2021/12/11 12:26:03;;;;;;;;;;;180.10;2252.80;;;;;;5073292;28;19911;-77
2021/12/11 12:28:30;;;;;;;;;;;180.10;2252.80;;;;;;5058222;28;20388;-76
2021/12/11 12:30:57;;;;;;;;;;;180.10;2252.80;;;;;;5074311;28;20265;-73
2021/12/11 12:33:23;;;;;;;;;;;180.10;2252.80;;;;;;5074558;28;19994;-76
2021/12/11 12:35:49;;;;;;;;;;;180.00;2252.80;;;;;;5074411;28;19905;-75
2021/12/11 12:38:19;;;;;;;;;;;180.00;2252.80;;;;;;5074029;28;19927;-76
2021/12/11 12:40:54;;;;;;;;;;;180.10;2252.80;;;;;;5074396;28;19904;-74
2021/12/11 12:43:52;;;;;;;;;;;180.00;2252.80;;;;;;5071811;28;19910;-76
2021/12/11 12:46:07;;;;;;;;;;;180.10;2252.80;;;;;;5067850;28;19911;-76
2021/12/11 12:48:33;;;;;;;;;;;180.00;2252.80;;;;;;5062436;28;19916;-79
2021/12/11 12:51:01;;;;;;;;;;;180.00;2252.80;;;;;;5072996;28;20289;-81
2021/12/11 12:53:33;;;;;;;;;;;180.00;2252.80;;;;;;5075931;28;19911;-75
2021/12/11 12:56:02;;;;;;;;;;;179.90;2252.80;;;;;;5074344;28;19999;-76
2021/12/11 12:58:33;;;;;;;;;;;180.00;2252.80;;;;;;5075575;28;19914;-75
2021/12/11 13:01:01;;;;;;;;;;;180.00;2252.80;;;;;;5075739;28;19904;-78
2021/12/11 13:03:29;;;;;;;;;;;180.10;2252.80;;;;;;5074200;28;19908;-74
2021/12/11 13:06:28;;;;;;;;;;;179.80;2252.80;;;;;;5074406;28;20361;-73
2021/12/11 13:08:56;;;;;;;;;;;180.00;2252.80;;;;;;5033762;28;19909;-80
2021/12/11 13:11:26;;;;;;;;;;;179.90;2252.80;;;;;;5033729;28;19923;-79
2021/12/11 13:13:54;;;;;;;;;;;179.80;2252.80;;;;;;5032524;28;19912;-74
2021/12/11 13:16:24;;;;;;;;;;;179.80;2252.80;;;;;;5032535;28;19996;-74
2021/12/11 13:18:52;;;;;;;;;;;179.90;2252.80;;;;;;5032879;28;20000;-73
2021/12/11 13:21:21;;;;;;;;;;;179.80;2252.80;;;;;;5032667;28;20317;-78
2021/12/11 13:23:49;;;;;;;;;;;179.80;2252.80;;;;;;5031901;28;19913;-78
2021/12/11 13:26:16;;;;;;;;;;;179.90;2252.80;;;;;;5032301;28;19944;-80
2021/12/11 13:28:47;;;;;;;;;;;179.90;2252.80;;;;;;5031607;28;20008;-76
2021/12/11 13:31:14;;;;;;;;;;;180.00;2252.80;;;;;;5032090;28;19920;-81
2021/12/11 13:33:41;;;;;;;;;;;180.10;2252.80;;;;;;5031494;28;19905;-80
2021/12/11 13:36:08;;;;;;;;;;;204.80;2252.80;;;;;;5031504;28;20000;-74
2021/12/11 13:38:34;;;;;;;;;;;180.10;2252.80;;;;;;5032149;28;19909;-75
2021/12/11 13:41:03;;;;;;;;;;;180.10;2252.80;;;;;;5015144;28;19905;-74
2021/12/11 13:43:28;;;;;;;;;;;180.00;2252.80;;;;;;5041437;28;19948;-78
2021/12/11 13:45:55;;;;;;;;;;;180.10;2252.80;;;;;;5073695;28;19966;-80
2021/12/11 13:48:21;;;;;;;;;;;204.80;2252.80;;;;;;5073459;28;19965;-80
2021/12/11 13:50:58;;;;;;;;;;;204.90;2252.80;;;;;;5059190;28;19925;-78
2021/12/11 13:53:24;;;;;;;;;;;205.00;2252.80;;;;;;5073673;28;20264;-81
2021/12/11 13:55:50;;;;;;;;;;;205.00;2252.80;;;;;;5073364;28;19904;-74
2021/12/11 13:58:16;;;;;;;;;;;205.00;2252.80;;;;;;5068319;28;20621;-80